createdAt,value
2018-03-01T00:00:36.275Z,30.30
2018-03-01T00:01:36.125Z,30.90
2018-03-01T00:02:36.060Z,30.00
2018-03-01T00:03:35.947Z,32.20
2018-03-01T00:04:35.846Z,32.70
2018-03-01T00:05:35.752Z,29.90
2018-03-01T00:06:35.714Z,31.70
2018-03-01T00:07:35.513Z,33.40
2018-03-01T00:08:35.422Z,31.80
2018-03-01T00:09:35.345Z,32.30
2018-03-01T00:10:35.204Z,33.80
2018-03-01T00:11:35.122Z,33.60
2018-03-01T00:12:35.024Z,32.40
2018-03-01T00:13:34.908Z,32.40
2018-03-01T00:14:34.779Z,33.10
2018-03-01T00:15:34.713Z,31.90
2018-03-01T00:16:34.600Z,32.70
2018-03-01T00:17:34.463Z,31.20
2018-03-01T00:18:34.398Z,32.40
2018-03-01T00:19:34.250Z,32.10
2018-03-01T00:20:34.144Z,29.70
2018-03-01T00:21:34.049Z,32.10
2018-03-01T00:22:33.936Z,35.70
2018-03-01T00:23:33.841Z,33.10
2018-03-01T00:24:34.026Z,33.20
2018-03-01T00:25:33.630Z,29.90
2018-03-01T00:26:33.527Z,31.50
2018-03-01T00:27:33.424Z,30.60
2018-03-01T00:28:33.330Z,30.00
2018-03-01T00:29:33.210Z,31.00
2018-03-01T00:30:33.164Z,30.90
2018-03-01T00:31:33.037Z,33.70
2018-03-01T00:32:32.921Z,34.60
2018-03-01T00:33:32.802Z,30.30
2018-03-01T00:34:32.722Z,31.20
2018-03-01T00:35:32.627Z,31.80
2018-03-01T00:36:32.530Z,29.90
2018-03-01T00:37:32.381Z,29.30
2018-03-01T00:38:32.286Z,32.70
2018-03-01T00:39:32.197Z,32.70
2018-03-01T00:40:32.066Z,34.20
2018-03-01T00:41:32.020Z,31.80
2018-03-01T00:42:32.719Z,29.60
2018-03-01T00:43:31.740Z,32.30
2018-03-01T00:44:31.655Z,33.50
2018-03-01T00:45:31.526Z,33.70
2018-03-01T00:46:31.428Z,29.40
2018-03-01T00:47:31.315Z,32.50
2018-03-01T00:48:31.245Z,30.50
2018-03-01T00:49:31.120Z,32.80
2018-03-01T00:50:31.010Z,31.90
2018-03-01T00:51:30.901Z,32.60
2018-03-01T00:52:30.800Z,30.70
2018-03-01T00:53:30.714Z,31.40
2018-03-01T00:54:30.708Z,31.20
2018-03-01T00:55:30.628Z,29.10
2018-03-01T00:56:30.549Z,32.90
2018-03-01T00:57:30.521Z,31.90
2018-03-01T00:58:30.490Z,29.80
2018-03-01T00:59:30.327Z,33.00
2018-03-01T01:00:30.342Z,31.60
2018-03-01T01:01:30.230Z,29.30
2018-03-01T01:02:29.855Z,31.30
2018-03-01T01:03:29.661Z,30.30
2018-03-01T01:04:29.564Z,32.90
2018-03-01T01:05:29.475Z,32.90
2018-03-01T01:06:29.406Z,32.80
2018-03-01T01:07:29.231Z,31.90
2018-03-01T01:08:29.144Z,31.00
2018-03-01T01:09:29.047Z,32.10
2018-03-01T01:10:28.923Z,29.10
2018-03-01T01:11:28.828Z,35.60
2018-03-01T01:12:28.748Z,31.90
2018-03-01T01:13:28.608Z,35.00
2018-03-01T01:14:28.500Z,30.90
2018-03-01T01:15:28.402Z,32.00
2018-03-01T01:16:28.298Z,31.00
2018-03-01T01:17:28.195Z,31.30
2018-03-01T01:18:28.118Z,30.30
2018-03-01T01:19:27.976Z,32.20
2018-03-01T01:20:27.883Z,33.90
2018-03-01T01:21:27.780Z,32.00
2018-03-01T01:22:27.668Z,33.70
2018-03-01T01:23:27.602Z,31.70
2018-03-01T01:24:27.514Z,31.30
2018-03-01T01:25:27.387Z,35.00
2018-03-01T01:26:27.286Z,33.20
2018-03-01T01:27:27.186Z,32.00
2018-03-01T01:28:27.090Z,34.30
2018-03-01T01:29:26.959Z,33.70
2018-03-01T01:30:26.906Z,32.40
2018-03-01T01:31:26.749Z,33.50
2018-03-01T01:32:26.657Z,32.30
2018-03-01T01:33:26.555Z,33.50
2018-03-01T01:34:26.432Z,33.80
2018-03-01T01:35:26.361Z,31.90
2018-03-01T01:36:26.277Z,32.90
2018-03-01T01:37:26.125Z,33.90
2018-03-01T01:38:25.998Z,35.80
2018-03-01T01:39:25.885Z,32.70
2018-03-01T01:40:25.791Z,34.50
2018-03-01T01:41:25.683Z,34.00
2018-03-01T01:42:25.608Z,34.00
2018-03-01T01:43:25.493Z,32.60
2018-03-01T01:44:25.368Z,31.00
2018-03-01T01:45:25.266Z,33.50
2018-03-01T01:46:25.160Z,29.60
2018-03-01T01:47:25.058Z,33.10
2018-03-01T01:48:24.999Z,34.50
2018-03-01T01:49:24.880Z,34.20
2018-03-01T01:50:24.767Z,34.30
2018-03-01T01:51:24.630Z,33.10
2018-03-01T01:52:24.526Z,31.80
2018-03-01T01:53:24.468Z,34.30
2018-03-01T01:54:24.383Z,29.40
2018-03-01T01:55:24.220Z,33.70
2018-03-01T01:56:24.146Z,31.10
2018-03-01T01:57:24.036Z,36.00
2018-03-01T01:58:23.924Z,31.90
2018-03-01T01:59:23.837Z,33.10
2018-03-01T02:00:23.740Z,32.60
2018-03-01T02:01:23.598Z,32.40
2018-03-01T02:02:23.482Z,36.60
2018-03-01T02:03:23.385Z,33.00
2018-03-01T02:04:23.284Z,34.20
2018-03-01T02:05:23.174Z,34.10
2018-03-01T02:06:23.086Z,34.10
2018-03-01T02:07:22.961Z,35.40
2018-03-01T02:08:22.853Z,34.80
2018-03-01T02:09:22.739Z,32.90
2018-03-01T02:10:22.641Z,33.60
2018-03-01T02:11:22.549Z,34.70
2018-03-01T02:12:22.468Z,32.40
2018-03-01T02:13:22.342Z,36.30
2018-03-01T02:14:22.213Z,32.00
2018-03-01T02:15:22.138Z,33.70
2018-03-01T02:16:22.028Z,31.80
2018-03-01T02:17:21.942Z,34.20
2018-03-01T02:18:21.838Z,33.70
2018-03-01T02:19:21.726Z,32.10
2018-03-01T02:20:21.625Z,36.20
2018-03-01T02:21:21.527Z,34.50
2018-03-01T02:22:21.371Z,34.40
2018-03-01T02:23:21.284Z,31.30
2018-03-01T02:24:21.227Z,32.20
2018-03-01T02:25:21.075Z,34.90
2018-03-01T02:26:20.961Z,35.60
2018-03-01T02:27:20.869Z,35.40
2018-03-01T02:28:20.776Z,34.10
2018-03-01T02:29:20.646Z,33.90
2018-03-01T02:30:20.600Z,34.10
2018-03-01T02:31:20.441Z,32.70
2018-03-01T02:32:20.332Z,33.60
2018-03-01T02:33:20.229Z,34.60
2018-03-01T02:34:20.130Z,34.40
2018-03-01T02:35:20.003Z,38.20
2018-03-01T02:36:19.930Z,35.40
2018-03-01T02:37:19.792Z,31.00
2018-03-01T02:38:19.696Z,34.30
2018-03-01T02:39:19.590Z,32.90
2018-03-01T02:40:19.546Z,32.40
2018-03-01T02:41:19.390Z,34.90
2018-03-01T02:42:19.355Z,37.10
2018-03-01T02:43:19.218Z,33.60
2018-03-01T02:44:19.084Z,35.10
2018-03-01T02:45:18.981Z,34.90
2018-03-01T02:46:18.872Z,33.90
2018-03-01T02:47:18.772Z,36.00
2018-03-01T02:48:18.749Z,34.80
2018-03-01T02:49:18.592Z,35.10
2018-03-01T02:50:18.474Z,32.70
2018-03-01T02:51:18.351Z,35.70
2018-03-01T02:52:18.240Z,33.90
2018-03-01T02:53:18.156Z,37.30
2018-03-01T02:54:18.119Z,35.50
2018-03-01T02:55:17.911Z,32.40
2018-03-01T02:56:17.810Z,34.50
2018-03-01T02:57:17.700Z,32.80
2018-03-01T02:58:17.585Z,32.70
2018-03-01T02:59:17.495Z,35.90
2018-03-01T03:00:17.421Z,32.60
2018-03-01T03:01:17.274Z,34.10
2018-03-01T03:02:17.186Z,34.70
2018-03-01T03:03:17.066Z,35.30
2018-03-01T03:04:16.954Z,33.20
2018-03-01T03:05:16.851Z,34.40
2018-03-01T03:06:16.784Z,36.50
2018-03-01T03:07:16.640Z,35.50
2018-03-01T03:08:16.569Z,36.00
2018-03-01T03:09:16.448Z,31.80
2018-03-01T03:10:16.354Z,35.50
2018-03-01T03:11:16.259Z,33.30
2018-03-01T03:12:16.166Z,35.30
2018-03-01T03:13:16.046Z,37.00
2018-03-01T03:14:15.905Z,38.00
2018-03-01T03:15:15.805Z,37.10
2018-03-01T03:16:15.706Z,33.40
2018-03-01T03:17:15.632Z,36.60
2018-03-01T03:18:15.542Z,34.30
2018-03-01T03:19:15.425Z,33.00
2018-03-01T03:20:15.339Z,38.60
2018-03-01T03:21:15.173Z,36.50
2018-03-01T03:22:15.055Z,37.80
2018-03-01T03:23:14.954Z,35.50
2018-03-01T03:24:14.909Z,38.00
2018-03-01T03:25:14.742Z,33.80
2018-03-01T03:26:14.635Z,36.90
2018-03-01T03:27:14.529Z,35.30
2018-03-01T03:28:14.429Z,35.50
2018-03-01T03:29:14.320Z,35.30
2018-03-01T03:30:14.247Z,33.60
2018-03-01T03:31:14.113Z,35.70
2018-03-01T03:32:13.999Z,36.50
2018-03-01T03:33:13.901Z,36.80
2018-03-01T03:34:13.822Z,37.00
2018-03-01T03:35:13.697Z,38.60
2018-03-01T03:36:13.654Z,37.10
2018-03-01T03:37:13.512Z,38.40
2018-03-01T03:38:13.383Z,34.20
2018-03-01T03:39:13.308Z,33.80
2018-03-01T03:40:13.172Z,33.60
2018-03-01T03:41:13.058Z,36.10
2018-03-01T03:42:13.051Z,32.30
2018-03-01T03:43:12.868Z,36.30
2018-03-01T03:44:12.794Z,39.00
2018-03-01T03:45:12.673Z,39.00
2018-03-01T03:46:12.541Z,36.10
2018-03-01T03:47:12.422Z,37.90
2018-03-01T03:48:12.355Z,33.70
2018-03-01T03:49:12.215Z,33.40
2018-03-01T03:50:12.111Z,34.50
2018-03-01T03:51:11.998Z,37.00
2018-03-01T03:52:11.898Z,35.90
2018-03-01T03:53:11.800Z,38.40
2018-03-01T03:54:11.713Z,36.90
2018-03-01T03:55:11.586Z,35.10
2018-03-01T03:56:11.482Z,36.00
2018-03-01T03:57:11.427Z,35.90
2018-03-01T03:58:11.271Z,37.50
2018-03-01T03:59:11.186Z,37.80
2018-03-01T04:00:11.106Z,36.10
2018-03-01T04:01:10.970Z,35.60
2018-03-01T04:02:10.868Z,39.30
2018-03-01T04:03:10.764Z,35.70
2018-03-01T04:04:10.649Z,35.20
2018-03-01T04:05:10.540Z,36.20
2018-03-01T04:06:10.487Z,36.60
2018-03-01T04:07:10.341Z,36.70
2018-03-01T04:08:10.235Z,36.20
2018-03-01T04:09:10.125Z,37.90
2018-03-01T04:10:10.043Z,37.90
2018-03-01T04:11:09.894Z,38.50
2018-03-01T04:12:09.823Z,37.20
2018-03-01T04:13:09.681Z,37.10
2018-03-01T04:14:09.582Z,36.50
2018-03-01T04:15:09.470Z,39.60
2018-03-01T04:16:09.374Z,32.80
2018-03-01T04:17:09.270Z,41.00
2018-03-01T04:18:09.206Z,37.60
2018-03-01T04:19:09.059Z,35.60
2018-03-01T04:20:08.957Z,36.80
2018-03-01T04:21:08.837Z,36.80
2018-03-01T04:22:08.746Z,37.60
2018-03-01T04:23:08.633Z,36.60
2018-03-01T04:24:08.583Z,36.80
2018-03-01T04:25:08.537Z,40.90
2018-03-01T04:26:08.334Z,39.90
2018-03-01T04:27:08.230Z,38.90
2018-03-01T04:28:08.135Z,35.90
2018-03-01T04:29:08.016Z,39.10
2018-03-01T04:30:07.921Z,38.40
2018-03-01T04:31:07.804Z,40.20
2018-03-01T04:32:07.696Z,42.90
2018-03-01T04:33:07.593Z,39.10
2018-03-01T04:34:07.504Z,38.20
2018-03-01T04:35:07.440Z,36.80
2018-03-01T04:36:07.380Z,39.40
2018-03-01T04:37:07.152Z,38.60
2018-03-01T04:38:07.056Z,38.40
2018-03-01T04:39:06.954Z,35.80
2018-03-01T04:40:06.853Z,35.60
2018-03-01T04:41:06.724Z,33.60
2018-03-01T04:42:06.662Z,40.00
2018-03-01T04:43:06.549Z,47.30
2018-03-01T04:44:06.417Z,45.30
2018-03-01T04:45:06.345Z,50.00
2018-03-01T04:46:06.206Z,82.80
2018-03-01T04:47:06.104Z,96.20
2018-03-01T04:48:06.030Z,56.90
2018-03-01T04:49:05.926Z,51.00
2018-03-01T04:50:05.814Z,56.30
2018-03-01T04:51:05.714Z,55.60
2018-03-01T04:52:05.644Z,46.80
2018-03-01T04:53:05.513Z,43.10
2018-03-01T04:54:05.474Z,41.10
2018-03-01T04:55:05.286Z,42.20
2018-03-01T04:56:05.188Z,39.60
2018-03-01T04:57:05.082Z,41.10
2018-03-01T04:58:04.985Z,41.30
2018-03-01T04:59:04.854Z,38.20
2018-03-01T05:00:04.788Z,37.30
2018-03-01T05:01:04.622Z,40.00
2018-03-01T05:02:04.535Z,38.30
2018-03-01T05:03:04.411Z,38.80
2018-03-01T05:04:04.335Z,41.80
2018-03-01T05:05:04.204Z,38.40
2018-03-01T05:06:04.153Z,40.90
2018-03-01T05:07:04.000Z,40.90
2018-03-01T05:08:03.914Z,41.90
2018-03-01T05:09:03.782Z,38.30
2018-03-01T05:10:03.687Z,40.60
2018-03-01T05:11:03.571Z,39.40
2018-03-01T05:12:03.539Z,38.40
2018-03-01T05:13:03.385Z,39.60
2018-03-01T05:14:03.310Z,40.20
2018-03-01T05:15:03.184Z,40.60
2018-03-01T05:16:03.071Z,37.90
2018-03-01T05:17:03.199Z,44.00
2018-03-01T05:18:02.891Z,44.80
2018-03-01T05:19:02.761Z,42.60
2018-03-01T05:20:02.656Z,42.10
2018-03-01T05:21:02.610Z,45.60
2018-03-01T05:22:02.466Z,43.30
2018-03-01T05:23:02.340Z,45.50
2018-03-01T05:24:05.530Z,44.80
2018-03-01T05:25:02.154Z,49.40
2018-03-01T05:26:02.001Z,47.90
2018-03-01T05:27:01.915Z,48.20
2018-03-01T05:28:01.780Z,46.10
2018-03-01T05:29:01.662Z,47.30
2018-03-01T05:30:01.628Z,45.70
2018-03-01T05:31:01.468Z,44.40
2018-03-01T05:32:01.372Z,45.60
2018-03-01T05:33:01.246Z,43.60
2018-03-01T05:34:01.142Z,43.20
2018-03-01T05:35:01.023Z,40.60
2018-03-01T05:36:00.963Z,44.60
2018-03-01T05:37:00.836Z,43.70
2018-03-01T05:38:00.734Z,41.50
2018-03-01T05:39:00.627Z,43.50
2018-03-01T05:40:00.546Z,43.20
2018-03-01T05:41:00.451Z,42.80
2018-03-01T05:42:00.351Z,43.00
2018-03-01T05:43:00.202Z,42.10
2018-03-01T05:44:01.748Z,42.90
2018-03-01T05:45:00.030Z,48.20
2018-03-01T05:45:59.937Z,43.50
2018-03-01T05:46:59.775Z,46.60
2018-03-01T05:47:59.754Z,37.40
2018-03-01T05:48:59.586Z,43.30
2018-03-01T05:49:59.491Z,43.70
2018-03-01T05:50:59.346Z,41.90
2018-03-01T05:51:59.252Z,45.50
2018-03-01T05:52:59.136Z,45.40
2018-03-01T05:53:59.096Z,43.40
2018-03-01T05:54:58.987Z,41.10
2018-03-01T05:55:58.842Z,43.90
2018-03-01T05:56:58.757Z,46.40
2018-03-01T05:57:58.620Z,41.30
2018-03-01T05:58:58.526Z,42.60
2018-03-01T05:59:58.457Z,43.30
2018-03-01T06:00:58.322Z,42.80
2018-03-01T06:01:58.181Z,52.20
2018-03-01T06:02:58.095Z,52.40
2018-03-01T06:03:57.991Z,46.20
2018-03-01T06:04:57.890Z,44.00
2018-03-01T06:05:57.824Z,39.40
2018-03-01T06:06:57.667Z,40.50
2018-03-01T06:07:57.600Z,42.30
2018-03-01T06:08:57.476Z,43.80
2018-03-01T06:09:57.387Z,43.00
2018-03-01T06:10:57.273Z,37.80
2018-03-01T06:11:57.172Z,42.80
2018-03-01T06:12:57.032Z,43.80
2018-03-01T06:13:56.965Z,41.80
2018-03-01T06:14:56.826Z,44.30
2018-03-01T06:15:56.742Z,41.10
2018-03-01T06:16:56.613Z,45.20
2018-03-01T06:17:56.549Z,42.30
2018-03-01T06:18:56.418Z,42.20
2018-03-01T06:19:56.293Z,45.30
2018-03-01T06:20:56.227Z,43.40
2018-03-01T06:21:56.094Z,40.00
2018-03-01T06:22:55.976Z,40.80
2018-03-01T06:23:55.900Z,43.90
2018-03-01T06:24:55.763Z,43.20
2018-03-01T06:25:55.686Z,42.70
2018-03-01T06:26:55.549Z,42.50
2018-03-01T06:27:55.443Z,39.80
2018-03-01T06:28:55.342Z,45.80
2018-03-01T06:29:55.244Z,43.50
2018-03-01T06:30:55.155Z,41.80
2018-03-01T06:31:55.041Z,38.10
2018-03-01T06:32:54.944Z,40.00
2018-03-01T06:33:54.835Z,40.10
2018-03-01T06:34:54.755Z,39.80
2018-03-01T06:35:54.640Z,43.70
2018-03-01T06:36:54.530Z,40.70
2018-03-01T06:37:54.403Z,38.90
2018-03-01T06:38:54.285Z,39.70
2018-03-01T06:39:54.207Z,45.10
2018-03-01T06:40:54.123Z,38.80
2018-03-01T06:41:54.073Z,42.70
2018-03-01T06:42:53.894Z,40.60
2018-03-01T06:43:53.764Z,43.60
2018-03-01T06:44:53.660Z,37.10
2018-03-01T06:45:53.550Z,39.20
2018-03-01T06:46:53.452Z,41.20
2018-03-01T06:47:53.367Z,38.60
2018-03-01T06:48:53.229Z,41.30
2018-03-01T06:49:53.125Z,40.10
2018-03-01T06:50:53.020Z,42.00
2018-03-01T06:51:52.913Z,42.00
2018-03-01T06:52:52.828Z,43.20
2018-03-01T06:53:52.752Z,44.00
2018-03-01T06:54:52.603Z,39.70
2018-03-01T06:55:52.505Z,40.80
2018-03-01T06:56:52.403Z,38.40
2018-03-01T06:57:52.361Z,44.70
2018-03-01T06:58:52.178Z,41.70
2018-03-01T06:59:52.145Z,39.80
2018-03-01T07:00:51.985Z,39.60
2018-03-01T07:01:51.876Z,41.80
2018-03-01T07:02:51.799Z,38.90
2018-03-01T07:03:51.675Z,42.70
2018-03-01T07:04:51.588Z,39.90
2018-03-01T07:05:51.492Z,40.80
2018-03-01T07:06:51.393Z,41.40
2018-03-01T07:07:51.275Z,39.90
2018-03-01T07:08:51.160Z,40.10
2018-03-01T07:09:51.025Z,38.30
2018-03-01T07:10:50.925Z,41.80
2018-03-01T07:11:50.884Z,40.70
2018-03-01T07:12:50.714Z,38.80
2018-03-01T07:13:50.628Z,43.20
2018-03-01T07:14:50.504Z,39.60
2018-03-01T07:15:50.392Z,41.10
2018-03-01T07:16:50.298Z,43.10
2018-03-01T07:17:50.236Z,39.50
2018-03-01T07:18:50.083Z,42.00
2018-03-01T07:19:49.984Z,38.80
2018-03-01T07:20:49.871Z,40.00
2018-03-01T07:21:49.768Z,42.90
2018-03-01T07:22:49.679Z,41.70
2018-03-01T07:23:49.622Z,38.60
2018-03-01T07:24:49.451Z,41.70
2018-03-01T07:25:49.371Z,40.50
2018-03-01T07:26:49.294Z,38.90
2018-03-01T07:27:49.168Z,40.90
2018-03-01T07:28:49.088Z,40.40
2018-03-01T07:29:48.985Z,40.80
2018-03-01T07:30:48.872Z,39.50
2018-03-01T07:31:48.771Z,40.30
2018-03-01T07:32:48.645Z,37.20
2018-03-01T07:33:48.558Z,39.00
2018-03-01T07:34:48.484Z,39.20
2018-03-01T07:35:48.430Z,37.90
2018-03-01T07:36:48.209Z,37.80
2018-03-01T07:37:48.115Z,40.30
2018-03-01T07:38:48.014Z,40.70
2018-03-01T07:39:47.925Z,38.70
2018-03-01T07:40:47.811Z,39.30
2018-03-01T07:41:47.746Z,40.60
2018-03-01T07:42:47.607Z,40.60
2018-03-01T07:43:47.505Z,37.50
2018-03-01T07:44:47.388Z,43.90
2018-03-01T07:45:47.293Z,41.00
2018-03-01T07:46:47.187Z,37.30
2018-03-01T07:47:47.128Z,37.80
2018-03-01T07:48:46.992Z,38.50
2018-03-01T07:49:46.928Z,39.90
2018-03-01T07:50:46.814Z,37.70
2018-03-01T07:51:46.710Z,40.60
2018-03-01T07:52:46.604Z,38.80
2018-03-01T07:53:46.541Z,37.70
2018-03-01T07:54:46.426Z,42.00
2018-03-01T07:55:46.306Z,41.20
2018-03-01T07:56:46.370Z,42.60
2018-03-01T07:57:46.119Z,40.40
2018-03-01T07:58:46.014Z,38.30
2018-03-01T07:59:45.952Z,39.40
2018-03-01T08:00:45.808Z,39.30
2018-03-01T08:01:45.708Z,41.40
2018-03-01T08:02:45.580Z,40.20
2018-03-01T08:03:45.483Z,38.70
2018-03-01T08:04:45.362Z,36.90
2018-03-01T08:05:45.304Z,39.30
2018-03-01T08:06:45.160Z,39.20
2018-03-01T08:07:45.062Z,38.50
2018-03-01T08:08:44.972Z,39.70
2018-03-01T08:09:44.854Z,42.90
2018-03-01T08:10:44.743Z,40.00
2018-03-01T08:11:44.935Z,38.10
2018-03-01T08:12:44.569Z,39.30
2018-03-01T08:13:44.445Z,36.60
2018-03-01T08:14:44.341Z,40.40
2018-03-01T08:15:44.253Z,41.10
2018-03-01T08:16:44.205Z,35.60
2018-03-01T08:17:44.090Z,35.80
2018-03-01T08:18:43.953Z,36.20
2018-03-01T08:19:43.873Z,35.20
2018-03-01T08:20:43.774Z,38.60
2018-03-01T08:21:43.668Z,35.60
2018-03-01T08:22:43.564Z,38.00
2018-03-01T08:23:43.496Z,37.80
2018-03-01T08:24:43.374Z,40.20
2018-03-01T08:25:43.265Z,40.80
2018-03-01T08:26:43.184Z,31.80
2018-03-01T08:27:43.073Z,36.40
2018-03-01T08:28:42.939Z,40.20
2018-03-01T08:29:42.895Z,35.70
2018-03-01T08:30:42.740Z,36.60
2018-03-01T08:31:42.641Z,38.30
2018-03-01T08:32:42.540Z,37.10
2018-03-01T08:33:42.438Z,37.80
2018-03-01T08:34:42.372Z,38.00
2018-03-01T08:35:42.295Z,37.30
2018-03-01T08:36:42.147Z,35.70
2018-03-01T08:37:42.050Z,36.60
2018-03-01T08:38:41.968Z,35.20
2018-03-01T08:39:41.850Z,35.60
2018-03-01T08:40:41.746Z,33.70
2018-03-01T08:41:41.691Z,34.20
2018-03-01T08:42:41.571Z,32.80
2018-03-01T08:43:41.462Z,34.70
2018-03-01T08:44:41.400Z,34.90
2018-03-01T08:45:41.290Z,34.20
2018-03-01T08:46:41.172Z,33.80
2018-03-01T08:47:41.128Z,31.60
2018-03-01T08:48:41.046Z,35.10
2018-03-01T08:49:40.895Z,33.10
2018-03-01T08:50:40.789Z,33.70
2018-03-01T08:51:40.710Z,32.10
2018-03-01T08:52:40.598Z,30.00
2018-03-01T08:53:40.523Z,32.70
2018-03-01T08:54:40.403Z,33.20
2018-03-01T08:55:40.290Z,33.20
2018-03-01T08:56:40.193Z,35.50
2018-03-01T08:57:40.130Z,33.90
2018-03-01T08:58:40.001Z,31.00
2018-03-01T08:59:39.920Z,32.50
2018-03-01T09:00:39.843Z,31.60
2018-03-01T09:01:39.699Z,33.50
2018-03-01T09:02:39.600Z,30.90
2018-03-01T09:03:39.503Z,31.40
2018-03-01T09:04:39.432Z,30.60
2018-03-01T09:05:39.368Z,34.00
2018-03-01T09:06:39.217Z,29.50
2018-03-01T09:07:39.131Z,32.90
2018-03-01T09:08:39.040Z,31.00
2018-03-01T09:09:38.952Z,31.60
2018-03-01T09:10:38.872Z,31.70
2018-03-01T09:11:38.803Z,33.40
2018-03-01T09:12:38.669Z,31.90
2018-03-01T09:13:38.563Z,30.80
2018-03-01T09:14:38.532Z,28.40
2018-03-01T09:15:38.370Z,31.10
2018-03-01T09:16:38.290Z,30.90
2018-03-01T09:17:38.271Z,32.60
2018-03-01T09:18:38.093Z,34.20
2018-03-01T09:19:37.994Z,31.30
2018-03-01T09:20:37.933Z,31.90
2018-03-01T09:21:37.833Z,28.70
2018-03-01T09:22:37.696Z,28.80
2018-03-01T09:23:37.652Z,28.10
2018-03-01T09:24:37.525Z,29.70
2018-03-01T09:25:37.432Z,31.20
2018-03-01T09:26:37.318Z,31.00
2018-03-01T09:27:37.285Z,30.00
2018-03-01T09:28:37.149Z,28.10
2018-03-01T09:29:37.078Z,28.90
2018-03-01T09:30:36.959Z,30.80
2018-03-01T09:31:36.852Z,29.80
2018-03-01T09:32:36.733Z,30.10
2018-03-01T09:33:36.660Z,26.90
2018-03-01T09:34:36.539Z,29.40
2018-03-01T09:35:36.508Z,30.00
2018-03-01T09:36:36.402Z,28.30
2018-03-01T09:37:36.281Z,33.80
2018-03-01T09:38:36.171Z,32.30
2018-03-01T09:39:36.115Z,29.80
2018-03-01T09:40:36.118Z,28.80
2018-03-01T09:41:35.936Z,31.30
2018-03-01T09:42:35.832Z,30.70
2018-03-01T09:43:35.710Z,33.70
2018-03-01T09:44:35.626Z,31.50
2018-03-01T09:45:35.537Z,31.30
2018-03-01T09:46:35.431Z,32.60
2018-03-01T09:47:35.354Z,32.20
2018-03-01T09:48:35.235Z,33.10
2018-03-01T09:49:35.136Z,31.20
2018-03-01T09:50:35.037Z,30.30
2018-03-01T09:51:34.952Z,36.00
2018-03-01T09:52:34.867Z,32.90
2018-03-01T09:53:34.780Z,32.10
2018-03-01T09:54:34.684Z,31.20
2018-03-01T09:55:34.591Z,35.10
2018-03-01T09:56:34.509Z,29.80
2018-03-01T09:57:34.383Z,33.30
2018-03-01T09:58:34.290Z,30.80
2018-03-01T09:59:34.274Z,29.20
2018-03-01T10:00:34.099Z,32.20
2018-03-01T10:01:34.014Z,32.00
2018-03-01T10:02:33.932Z,33.40
2018-03-01T10:03:33.853Z,29.80
2018-03-01T10:04:33.741Z,30.40
2018-03-01T10:05:34.563Z,28.70
2018-03-01T10:06:33.558Z,26.90
2018-03-01T10:07:33.462Z,28.00
2018-03-01T10:08:33.376Z,28.80
2018-03-01T10:09:33.291Z,28.80
2018-03-01T10:10:33.188Z,29.80
2018-03-01T10:11:33.121Z,31.20
2018-03-01T10:12:33.026Z,30.00
2018-03-01T10:13:32.893Z,31.30
2018-03-01T10:14:32.786Z,29.50
2018-03-01T10:15:32.688Z,32.70
2018-03-01T10:16:32.599Z,29.70
2018-03-01T10:17:32.543Z,33.50
2018-03-01T10:18:32.432Z,33.80
2018-03-01T10:19:32.364Z,29.70
2018-03-01T10:20:32.230Z,29.20
2018-03-01T10:21:32.142Z,31.50
2018-03-01T10:22:32.049Z,28.30
2018-03-01T10:23:32.011Z,30.90
2018-03-01T10:24:31.851Z,27.80
2018-03-01T10:25:31.779Z,28.60
2018-03-01T10:26:31.685Z,33.20
2018-03-01T10:27:31.599Z,29.50
2018-03-01T10:28:31.515Z,30.20
2018-03-01T10:29:31.499Z,33.00
2018-03-01T10:30:31.328Z,28.50
2018-03-01T10:31:31.289Z,30.30
2018-03-01T10:32:31.142Z,29.70
2018-03-01T10:33:31.045Z,34.00
2018-03-01T10:34:30.983Z,31.30
2018-03-01T10:35:30.896Z,33.30
2018-03-01T10:36:30.766Z,32.00
2018-03-01T10:37:30.672Z,32.10
2018-03-01T10:38:30.627Z,31.80
2018-03-01T10:39:30.474Z,31.90
2018-03-01T10:40:30.384Z,29.90
2018-03-01T10:41:30.320Z,30.70
2018-03-01T10:42:30.207Z,33.10
2018-03-01T10:43:30.097Z,33.40
2018-03-01T10:44:29.989Z,29.90
2018-03-01T10:45:29.892Z,31.30
2018-03-01T10:46:29.826Z,30.40
2018-03-01T10:47:29.758Z,33.70
2018-03-01T10:48:29.639Z,36.80
2018-03-01T10:49:29.537Z,31.60
2018-03-01T10:50:29.449Z,32.10
2018-03-01T10:51:29.331Z,37.30
2018-03-01T10:52:29.232Z,32.30
2018-03-01T10:53:29.211Z,28.50
2018-03-01T10:54:29.124Z,33.40
2018-03-01T10:55:28.975Z,30.80
2018-03-01T10:56:28.918Z,28.80
2018-03-01T10:57:28.788Z,32.30
2018-03-01T10:58:28.744Z,33.10
2018-03-01T10:59:28.664Z,34.20
2018-03-01T11:00:28.529Z,30.30
2018-03-01T11:01:28.414Z,33.30
2018-03-01T11:02:28.334Z,31.30
2018-03-01T11:03:28.230Z,27.50
2018-03-01T11:04:28.127Z,31.90
2018-03-01T11:05:28.078Z,30.50
2018-03-01T11:06:27.933Z,37.00
2018-03-01T11:07:27.825Z,29.70
2018-03-01T11:08:27.751Z,29.50
2018-03-01T11:09:27.646Z,28.80
2018-03-01T11:10:27.597Z,28.90
2018-03-01T11:11:27.509Z,30.40
2018-03-01T11:12:27.351Z,30.50
2018-03-01T11:13:27.274Z,28.70
2018-03-01T11:14:27.186Z,31.80
2018-03-01T11:15:27.137Z,31.50
2018-03-01T11:16:26.995Z,32.20
2018-03-01T11:17:26.915Z,30.60
2018-03-01T11:18:26.798Z,29.70
2018-03-01T11:19:26.708Z,32.20
2018-03-01T11:20:26.639Z,34.30
2018-03-01T11:21:26.552Z,30.20
2018-03-01T11:22:26.450Z,31.60
2018-03-01T11:23:26.384Z,28.30
2018-03-01T11:24:26.251Z,31.10
2018-03-01T11:25:26.160Z,31.50
2018-03-01T11:26:26.068Z,29.30
2018-03-01T11:27:25.996Z,31.80
2018-03-01T11:28:25.899Z,28.20
2018-03-01T11:29:25.858Z,32.30
2018-03-01T11:30:25.713Z,29.10
2018-03-01T11:31:25.620Z,31.60
2018-03-01T11:32:25.529Z,29.30
2018-03-01T11:33:25.408Z,32.80
2018-03-01T11:34:25.316Z,32.10
2018-03-01T11:35:25.243Z,30.80
2018-03-01T11:36:25.125Z,31.20
2018-03-01T11:37:25.041Z,29.80
2018-03-01T11:38:24.960Z,32.60
2018-03-01T11:39:24.827Z,31.20
2018-03-01T11:40:24.753Z,31.60
2018-03-01T11:41:24.694Z,30.90
2018-03-01T11:42:24.558Z,29.80
2018-03-01T11:43:24.448Z,31.20
2018-03-01T11:44:24.359Z,30.50
2018-03-01T11:45:24.293Z,30.50
2018-03-01T11:46:24.187Z,27.50
2018-03-01T11:47:24.169Z,31.60
2018-03-01T11:48:23.993Z,28.20
2018-03-01T11:49:23.934Z,29.50
2018-03-01T11:50:23.839Z,26.80
2018-03-01T11:51:23.752Z,30.10
2018-03-01T11:52:23.617Z,32.90
2018-03-01T11:53:23.588Z,28.50
2018-03-01T11:54:23.464Z,30.90
2018-03-01T11:55:23.370Z,32.00
2018-03-01T11:56:23.272Z,29.60
2018-03-01T11:57:23.212Z,28.80
2018-03-01T11:58:23.092Z,28.20
2018-03-01T11:59:23.055Z,29.90
2018-03-01T12:00:22.880Z,27.20
2018-03-01T12:01:22.781Z,29.40
2018-03-01T12:02:22.688Z,28.90
2018-03-01T12:03:22.601Z,29.90
2018-03-01T12:04:22.526Z,26.40
2018-03-01T12:05:22.494Z,29.20
2018-03-01T12:06:22.314Z,29.20
2018-03-01T12:07:22.227Z,28.90
2018-03-01T12:08:22.153Z,30.60
2018-03-01T12:09:22.041Z,29.20
2018-03-01T12:10:21.931Z,27.60
2018-03-01T12:11:21.892Z,27.00
2018-03-01T12:12:21.760Z,27.90
2018-03-01T12:13:21.709Z,28.00
2018-03-01T12:14:21.565Z,28.80
2018-03-01T12:15:21.482Z,26.80
2018-03-01T12:16:22.081Z,29.00
2018-03-01T12:17:21.448Z,25.90
2018-03-01T12:18:21.241Z,27.90
2018-03-01T12:19:21.141Z,29.50
2018-03-01T12:20:21.030Z,28.50
2018-03-01T12:21:20.977Z,27.30
2018-03-01T12:22:20.875Z,30.30
2018-03-01T12:23:20.901Z,25.50
2018-03-01T12:24:20.660Z,25.10
2018-03-01T12:25:20.539Z,27.60
2018-03-01T12:26:20.436Z,24.70
2018-03-01T12:27:20.360Z,25.90
2018-03-01T12:28:20.266Z,24.90
2018-03-01T12:29:20.187Z,26.10
2018-03-01T12:30:20.060Z,26.10
2018-03-01T12:31:19.983Z,24.80
2018-03-01T12:32:19.874Z,26.10
2018-03-01T12:33:19.789Z,26.40
2018-03-01T12:34:19.697Z,28.10
2018-03-01T12:35:19.621Z,26.50
2018-03-01T12:36:19.510Z,25.80
2018-03-01T12:37:19.432Z,27.10
2018-03-01T12:38:19.342Z,26.00
2018-03-01T12:39:19.242Z,24.60
2018-03-01T12:40:19.179Z,29.50
2018-03-01T12:41:19.388Z,29.10
2018-03-01T12:42:18.995Z,34.70
2018-03-01T12:43:18.872Z,34.10
2018-03-01T12:44:18.783Z,26.30
2018-03-01T12:45:18.878Z,26.30
2018-03-01T12:46:18.608Z,23.80
2018-03-01T12:47:18.616Z,24.30
2018-03-01T12:48:18.413Z,26.10
2018-03-01T12:49:18.337Z,28.00
2018-03-01T12:50:18.229Z,25.20
2018-03-01T12:51:18.142Z,27.60